sensor_id;sensor_type;location;lat;lon;timestamp;P1;durP1;ratioP1;P2;durP2;ratioP2
60859;SDS011;46694;54.382;9.708;2022-11-24T00:02:29;22.73;;;12.07;;
60859;SDS011;46694;54.382;9.708;2022-11-24T00:05:09;19.58;;;11.18;;
60859;SDS011;46694;54.382;9.708;2022-11-24T00:07:48;31.85;;;13.93;;
60859;SDS011;46694;54.382;9.708;2022-11-24T00:14:02;22.05;;;12.48;;
60859;SDS011;46694;54.382;9.708;2022-11-24T00:16:43;19.13;;;11.93;;
60859;SDS011;46694;54.382;9.708;2022-11-24T00:19:22;26.92;;;13.30;;
60859;SDS011;46694;54.382;9.708;2022-11-24T00:22:02;17.60;;;12.13;;
60859;SDS011;46694;54.382;9.708;2022-11-24T00:24:41;24.48;;;12.25;;
60859;SDS011;46694;54.382;9.708;2022-11-24T00:27:21;26.05;;;13.40;;
60859;SDS011;46694;54.382;9.708;2022-11-24T00:30:00;25.27;;;11.48;;
60859;SDS011;46694;54.382;9.708;2022-11-24T00:32:40;21.65;;;11.82;;
60859;SDS011;46694;54.382;9.708;2022-11-24T00:35:20;31.38;;;12.65;;
60859;SDS011;46694;54.382;9.708;2022-11-24T00:37:59;26.42;;;11.70;;
60859;SDS011;46694;54.382;9.708;2022-11-24T00:40:39;23.92;;;13.45;;
60859;SDS011;46694;54.382;9.708;2022-11-24T00:43:19;22.45;;;13.32;;
60859;SDS011;46694;54.382;9.708;2022-11-24T00:45:58;25.40;;;12.68;;
60859;SDS011;46694;54.382;9.708;2022-11-24T00:48:38;26.73;;;12.75;;
60859;SDS011;46694;54.382;9.708;2022-11-24T00:51:18;20.70;;;11.82;;
60859;SDS011;46694;54.382;9.708;2022-11-24T00:54:01;27.55;;;12.98;;
60859;SDS011;46694;54.382;9.708;2022-11-24T00:56:40;21.27;;;12.10;;
60859;SDS011;46694;54.382;9.708;2022-11-24T00:59:20;26.40;;;14.10;;
60859;SDS011;46694;54.382;9.708;2022-11-24T01:02:00;23.45;;;11.73;;
60859;SDS011;46694;54.382;9.708;2022-11-24T01:04:39;25.83;;;13.45;;
60859;SDS011;46694;54.382;9.708;2022-11-24T01:07:19;30.30;;;12.57;;
60859;SDS011;46694;54.382;9.708;2022-11-24T01:09:58;22.25;;;13.35;;
60859;SDS011;46694;54.382;9.708;2022-11-24T01:12:38;28.20;;;13.38;;
60859;SDS011;46694;54.382;9.708;2022-11-24T01:15:17;20.40;;;12.60;;
60859;SDS011;46694;54.382;9.708;2022-11-24T01:17:57;30.92;;;12.15;;
60859;SDS011;46694;54.382;9.708;2022-11-24T01:20:37;23.10;;;13.30;;
60859;SDS011;46694;54.382;9.708;2022-11-24T01:23:17;27.10;;;13.48;;
60859;SDS011;46694;54.382;9.708;2022-11-24T01:25:56;20.92;;;12.57;;
60859;SDS011;46694;54.382;9.708;2022-11-24T01:28:36;22.42;;;13.15;;
60859;SDS011;46694;54.382;9.708;2022-11-24T01:31:16;36.25;;;13.35;;
60859;SDS011;46694;54.382;9.708;2022-11-24T01:33:55;22.63;;;11.63;;
60859;SDS011;46694;54.382;9.708;2022-11-24T01:36:35;27.50;;;13.60;;
60859;SDS011;46694;54.382;9.708;2022-11-24T01:39:14;27.85;;;12.43;;
60859;SDS011;46694;54.382;9.708;2022-11-24T01:41:54;22.48;;;12.93;;
60859;SDS011;46694;54.382;9.708;2022-11-24T01:44:33;39.42;;;10.68;;
60859;SDS011;46694;54.382;9.708;2022-11-24T01:50:16;19.05;;;10.80;;
60859;SDS011;46694;54.382;9.708;2022-11-24T01:52:55;22.88;;;11.25;;
60859;SDS011;46694;54.382;9.708;2022-11-24T01:55:36;24.40;;;12.18;;
60859;SDS011;46694;54.382;9.708;2022-11-24T01:58:20;35.38;;;13.10;;
60859;SDS011;46694;54.382;9.708;2022-11-24T02:01:02;28.80;;;13.27;;
60859;SDS011;46694;54.382;9.708;2022-11-24T02:03:42;24.85;;;10.45;;
60859;SDS011;46694;54.382;9.708;2022-11-24T02:06:25;18.90;;;10.77;;
60859;SDS011;46694;54.382;9.708;2022-11-24T02:09:12;24.35;;;11.85;;
60859;SDS011;46694;54.382;9.708;2022-11-24T02:12:02;31.20;;;11.43;;
60859;SDS011;46694;54.382;9.708;2022-11-24T02:14:42;22.75;;;11.85;;
60859;SDS011;46694;54.382;9.708;2022-11-24T02:17:23;18.60;;;12.60;;
60859;SDS011;46694;54.382;9.708;2022-11-24T02:20:04;26.10;;;12.50;;
60859;SDS011;46694;54.382;9.708;2022-11-24T02:22:49;33.03;;;15.40;;
60859;SDS011;46694;54.382;9.708;2022-11-24T02:28:40;29.80;;;12.82;;
60859;SDS011;46694;54.382;9.708;2022-11-24T02:31:20;26.90;;;12.50;;
60859;SDS011;46694;54.382;9.708;2022-11-24T02:33:59;22.52;;;12.25;;
60859;SDS011;46694;54.382;9.708;2022-11-24T02:36:40;23.67;;;13.98;;
60859;SDS011;46694;54.382;9.708;2022-11-24T02:39:19;24.13;;;12.48;;
60859;SDS011;46694;54.382;9.708;2022-11-24T02:42:00;25.92;;;13.65;;
60859;SDS011;46694;54.382;9.708;2022-11-24T02:44:45;37.50;;;14.88;;
60859;SDS011;46694;54.382;9.708;2022-11-24T02:47:30;38.42;;;14.60;;
60859;SDS011;46694;54.382;9.708;2022-11-24T02:50:10;25.52;;;13.85;;
60859;SDS011;46694;54.382;9.708;2022-11-24T02:52:50;19.35;;;13.48;;
60859;SDS011;46694;54.382;9.708;2022-11-24T02:55:29;29.10;;;15.10;;
60859;SDS011;46694;54.382;9.708;2022-11-24T02:58:09;34.28;;;15.50;;
60859;SDS011;46694;54.382;9.708;2022-11-24T03:00:49;21.85;;;13.85;;
60859;SDS011;46694;54.382;9.708;2022-11-24T03:03:31;29.15;;;15.93;;
60859;SDS011;46694;54.382;9.708;2022-11-24T03:06:11;33.40;;;16.17;;
60859;SDS011;46694;54.382;9.708;2022-11-24T03:08:50;43.20;;;18.10;;
60859;SDS011;46694;54.382;9.708;2022-11-24T03:11:30;27.10;;;15.50;;
60859;SDS011;46694;54.382;9.708;2022-11-24T03:14:09;40.60;;;15.13;;
60859;SDS011;46694;54.382;9.708;2022-11-24T03:16:49;37.63;;;15.20;;
60859;SDS011;46694;54.382;9.708;2022-11-24T03:19:28;33.97;;;15.77;;
60859;SDS011;46694;54.382;9.708;2022-11-24T03:22:08;35.55;;;18.55;;
60859;SDS011;46694;54.382;9.708;2022-11-24T03:24:47;32.90;;;16.25;;
60859;SDS011;46694;54.382;9.708;2022-11-24T03:27:28;29.30;;;17.08;;
60859;SDS011;46694;54.382;9.708;2022-11-24T03:30:08;34.10;;;18.33;;
60859;SDS011;46694;54.382;9.708;2022-11-24T03:32:52;27.30;;;17.25;;
60859;SDS011;46694;54.382;9.708;2022-11-24T03:35:32;40.17;;;17.00;;
60859;SDS011;46694;54.382;9.708;2022-11-24T03:38:11;27.25;;;16.95;;
60859;SDS011;46694;54.382;9.708;2022-11-24T03:40:51;39.50;;;17.90;;
60859;SDS011;46694;54.382;9.708;2022-11-24T03:43:31;36.95;;;17.85;;
60859;SDS011;46694;54.382;9.708;2022-11-24T03:46:11;33.65;;;19.52;;
60859;SDS011;46694;54.382;9.708;2022-11-24T03:48:50;41.80;;;18.35;;
60859;SDS011;46694;54.382;9.708;2022-11-24T03:51:30;40.58;;;19.13;;
60859;SDS011;46694;54.382;9.708;2022-11-24T03:54:09;32.20;;;18.08;;
60859;SDS011;46694;54.382;9.708;2022-11-24T03:56:49;30.17;;;17.67;;
60859;SDS011;46694;54.382;9.708;2022-11-24T03:59:28;34.17;;;20.02;;
60859;SDS011;46694;54.382;9.708;2022-11-24T04:02:08;40.28;;;18.98;;
60859;SDS011;46694;54.382;9.708;2022-11-24T04:04:47;45.85;;;20.13;;
60859;SDS011;46694;54.382;9.708;2022-11-24T04:07:29;47.83;;;20.15;;
60859;SDS011;46694;54.382;9.708;2022-11-24T04:10:09;37.97;;;19.50;;
60859;SDS011;46694;54.382;9.708;2022-11-24T04:12:49;35.53;;;18.02;;
60859;SDS011;46694;54.382;9.708;2022-11-24T04:15:28;45.13;;;19.63;;
60859;SDS011;46694;54.382;9.708;2022-11-24T04:18:09;34.90;;;19.15;;
60859;SDS011;46694;54.382;9.708;2022-11-24T04:20:50;29.60;;;18.75;;
60859;SDS011;46694;54.382;9.708;2022-11-24T04:23:30;42.20;;;19.90;;
60859;SDS011;46694;54.382;9.708;2022-11-24T04:26:10;39.28;;;20.00;;
60859;SDS011;46694;54.382;9.708;2022-11-24T04:28:49;45.65;;;20.33;;
60859;SDS011;46694;54.382;9.708;2022-11-24T04:31:29;36.15;;;18.80;;
60859;SDS011;46694;54.382;9.708;2022-11-24T04:34:09;41.53;;;18.95;;
60859;SDS011;46694;54.382;9.708;2022-11-24T04:36:49;37.40;;;18.92;;
60859;SDS011;46694;54.382;9.708;2022-11-24T04:39:28;35.20;;;20.15;;
60859;SDS011;46694;54.382;9.708;2022-11-24T04:42:08;45.97;;;20.65;;
60859;SDS011;46694;54.382;9.708;2022-11-24T04:44:47;44.80;;;21.05;;
60859;SDS011;46694;54.382;9.708;2022-11-24T04:47:27;39.92;;;20.88;;
60859;SDS011;46694;54.382;9.708;2022-11-24T04:50:12;48.08;;;20.75;;
60859;SDS011;46694;54.382;9.708;2022-11-24T04:52:52;35.85;;;19.83;;
60859;SDS011;46694;54.382;9.708;2022-11-24T04:55:32;39.55;;;20.98;;
60859;SDS011;46694;54.382;9.708;2022-11-24T04:58:11;36.80;;;20.15;;
60859;SDS011;46694;54.382;9.708;2022-11-24T05:00:51;37.05;;;19.42;;
60859;SDS011;46694;54.382;9.708;2022-11-24T05:03:31;38.80;;;20.92;;
60859;SDS011;46694;54.382;9.708;2022-11-24T05:06:10;42.72;;;22.52;;
60859;SDS011;46694;54.382;9.708;2022-11-24T05:08:50;49.83;;;22.52;;
60859;SDS011;46694;54.382;9.708;2022-11-24T05:11:30;42.45;;;20.77;;
60859;SDS011;46694;54.382;9.708;2022-11-24T05:14:10;50.13;;;21.90;;
60859;SDS011;46694;54.382;9.708;2022-11-24T05:16:50;39.13;;;22.15;;
60859;SDS011;46694;54.382;9.708;2022-11-24T05:19:30;44.78;;;21.25;;
60859;SDS011;46694;54.382;9.708;2022-11-24T05:22:09;43.58;;;21.73;;
60859;SDS011;46694;54.382;9.708;2022-11-24T05:24:49;44.90;;;21.35;;
60859;SDS011;46694;54.382;9.708;2022-11-24T05:27:29;48.03;;;22.10;;
60859;SDS011;46694;54.382;9.708;2022-11-24T05:30:10;45.47;;;22.13;;
60859;SDS011;46694;54.382;9.708;2022-11-24T05:32:50;44.92;;;22.33;;
60859;SDS011;46694;54.382;9.708;2022-11-24T05:35:29;36.92;;;21.13;;
60859;SDS011;46694;54.382;9.708;2022-11-24T05:38:09;46.60;;;22.00;;
60859;SDS011;46694;54.382;9.708;2022-11-24T05:40:49;49.42;;;21.70;;
60859;SDS011;46694;54.382;9.708;2022-11-24T05:43:29;44.65;;;22.15;;
60859;SDS011;46694;54.382;9.708;2022-11-24T05:46:08;50.70;;;24.67;;
60859;SDS011;46694;54.382;9.708;2022-11-24T05:48:48;43.70;;;21.42;;
60859;SDS011;46694;54.382;9.708;2022-11-24T05:51:27;40.80;;;23.35;;
60859;SDS011;46694;54.382;9.708;2022-11-24T05:54:08;47.50;;;21.75;;
60859;SDS011;46694;54.382;9.708;2022-11-24T05:56:47;39.55;;;22.52;;
60859;SDS011;46694;54.382;9.708;2022-11-24T05:59:27;59.35;;;22.48;;
60859;SDS011;46694;54.382;9.708;2022-11-24T06:02:07;47.13;;;24.27;;
60859;SDS011;46694;54.382;9.708;2022-11-24T06:04:47;50.10;;;21.98;;
60859;SDS011;46694;54.382;9.708;2022-11-24T06:07:27;53.25;;;23.98;;
60859;SDS011;46694;54.382;9.708;2022-11-24T06:10:06;42.70;;;22.60;;
60859;SDS011;46694;54.382;9.708;2022-11-24T06:12:47;50.22;;;25.73;;
60859;SDS011;46694;54.382;9.708;2022-11-24T06:15:26;56.95;;;23.30;;
60859;SDS011;46694;54.382;9.708;2022-11-24T06:18:06;46.42;;;23.42;;
60859;SDS011;46694;54.382;9.708;2022-11-24T06:20:45;61.35;;;24.55;;
60859;SDS011;46694;54.382;9.708;2022-11-24T06:23:25;52.13;;;22.50;;
60859;SDS011;46694;54.382;9.708;2022-11-24T06:26:05;53.42;;;23.48;;
60859;SDS011;46694;54.382;9.708;2022-11-24T06:28:44;54.28;;;22.83;;
60859;SDS011;46694;54.382;9.708;2022-11-24T06:31:24;59.72;;;25.25;;
60859;SDS011;46694;54.382;9.708;2022-11-24T06:34:07;46.15;;;22.25;;
60859;SDS011;46694;54.382;9.708;2022-11-24T06:36:49;70.68;;;24.13;;
60859;SDS011;46694;54.382;9.708;2022-11-24T06:39:28;55.78;;;25.13;;
60859;SDS011;46694;54.382;9.708;2022-11-24T06:42:08;64.63;;;24.00;;
60859;SDS011;46694;54.382;9.708;2022-11-24T06:44:47;51.33;;;24.65;;
60859;SDS011;46694;54.382;9.708;2022-11-24T06:47:27;47.80;;;23.58;;
60859;SDS011;46694;54.382;9.708;2022-11-24T06:50:08;57.97;;;24.45;;
60859;SDS011;46694;54.382;9.708;2022-11-24T06:52:49;43.55;;;23.67;;
60859;SDS011;46694;54.382;9.708;2022-11-24T06:55:29;71.25;;;25.13;;
60859;SDS011;46694;54.382;9.708;2022-11-24T06:58:08;53.28;;;23.80;;
60859;SDS011;46694;54.382;9.708;2022-11-24T07:00:48;64.38;;;24.60;;
60859;SDS011;46694;54.382;9.708;2022-11-24T07:03:27;60.20;;;23.83;;
60859;SDS011;46694;54.382;9.708;2022-11-24T07:06:07;54.25;;;25.23;;
60859;SDS011;46694;54.382;9.708;2022-11-24T07:08:47;55.53;;;24.48;;
60859;SDS011;46694;54.382;9.708;2022-11-24T07:11:27;57.58;;;25.70;;
60859;SDS011;46694;54.382;9.708;2022-11-24T07:14:06;62.40;;;23.95;;
60859;SDS011;46694;54.382;9.708;2022-11-24T07:16:46;78.80;;;26.60;;
60859;SDS011;46694;54.382;9.708;2022-11-24T07:19:26;47.85;;;23.05;;
60859;SDS011;46694;54.382;9.708;2022-11-24T07:22:06;69.05;;;24.90;;
60859;SDS011;46694;54.382;9.708;2022-11-24T07:24:45;56.90;;;24.05;;
60859;SDS011;46694;54.382;9.708;2022-11-24T07:27:25;45.70;;;24.15;;
60859;SDS011;46694;54.382;9.708;2022-11-24T07:30:06;66.53;;;25.02;;
60859;SDS011;46694;54.382;9.708;2022-11-24T07:32:46;47.25;;;25.40;;
60859;SDS011;46694;54.382;9.708;2022-11-24T07:35:26;66.65;;;25.70;;
60859;SDS011;46694;54.382;9.708;2022-11-24T07:38:07;57.60;;;25.77;;
60859;SDS011;46694;54.382;9.708;2022-11-24T07:40:47;54.85;;;25.83;;
60859;SDS011;46694;54.382;9.708;2022-11-24T07:43:27;67.07;;;26.90;;
60859;SDS011;46694;54.382;9.708;2022-11-24T07:46:10;60.13;;;26.25;;
60859;SDS011;46694;54.382;9.708;2022-11-24T07:48:51;64.10;;;26.05;;
60859;SDS011;46694;54.382;9.708;2022-11-24T07:51:30;68.60;;;27.20;;
60859;SDS011;46694;54.382;9.708;2022-11-24T07:54:10;64.63;;;26.05;;
60859;SDS011;46694;54.382;9.708;2022-11-24T07:56:50;45.10;;;24.58;;
60859;SDS011;46694;54.382;9.708;2022-11-24T07:59:29;69.88;;;24.42;;
60859;SDS011;46694;54.382;9.708;2022-11-24T08:02:10;71.88;;;28.00;;
60859;SDS011;46694;54.382;9.708;2022-11-24T08:04:50;71.57;;;25.50;;
60859;SDS011;46694;54.382;9.708;2022-11-24T08:07:30;68.22;;;26.42;;
60859;SDS011;46694;54.382;9.708;2022-11-24T08:10:11;52.38;;;24.30;;
60859;SDS011;46694;54.382;9.708;2022-11-24T08:12:51;62.25;;;24.95;;
60859;SDS011;46694;54.382;9.708;2022-11-24T08:15:30;60.60;;;24.42;;
60859;SDS011;46694;54.382;9.708;2022-11-24T08:18:10;57.30;;;24.27;;
60859;SDS011;46694;54.382;9.708;2022-11-24T08:20:50;53.92;;;25.00;;
60859;SDS011;46694;54.382;9.708;2022-11-24T08:23:30;57.50;;;23.95;;
60859;SDS011;46694;54.382;9.708;2022-11-24T08:26:14;59.00;;;25.55;;
60859;SDS011;46694;54.382;9.708;2022-11-24T08:28:58;52.72;;;24.55;;
60859;SDS011;46694;54.382;9.708;2022-11-24T08:31:38;53.17;;;23.83;;
60859;SDS011;46694;54.382;9.708;2022-11-24T08:34:18;63.95;;;24.27;;
60859;SDS011;46694;54.382;9.708;2022-11-24T08:36:57;66.22;;;23.77;;
60859;SDS011;46694;54.382;9.708;2022-11-24T08:39:37;50.13;;;22.48;;
60859;SDS011;46694;54.382;9.708;2022-11-24T08:42:17;56.22;;;23.90;;
60859;SDS011;46694;54.382;9.708;2022-11-24T08:44:56;45.65;;;24.50;;
60859;SDS011;46694;54.382;9.708;2022-11-24T08:47:36;59.13;;;23.60;;
60859;SDS011;46694;54.382;9.708;2022-11-24T08:50:16;61.78;;;24.00;;
60859;SDS011;46694;54.382;9.708;2022-11-24T08:52:56;49.60;;;21.77;;
60859;SDS011;46694;54.382;9.708;2022-11-24T08:55:35;63.22;;;24.88;;
60859;SDS011;46694;54.382;9.708;2022-11-24T08:58:15;54.35;;;23.45;;
60859;SDS011;46694;54.382;9.708;2022-11-24T09:00:54;64.57;;;22.45;;
60859;SDS011;46694;54.382;9.708;2022-11-24T09:03:34;53.58;;;23.17;;
60859;SDS011;46694;54.382;9.708;2022-11-24T09:06:16;59.90;;;22.30;;
60859;SDS011;46694;54.382;9.708;2022-11-24T09:09:00;71.97;;;22.98;;
60859;SDS011;46694;54.382;9.708;2022-11-24T09:11:39;46.90;;;21.75;;
60859;SDS011;46694;54.382;9.708;2022-11-24T09:14:19;65.05;;;22.42;;
60859;SDS011;46694;54.382;9.708;2022-11-24T09:16:58;54.85;;;22.85;;
60859;SDS011;46694;54.382;9.708;2022-11-24T09:19:38;55.88;;;23.50;;
60859;SDS011;46694;54.382;9.708;2022-11-24T09:22:17;52.35;;;21.90;;
60859;SDS011;46694;54.382;9.708;2022-11-24T09:24:57;45.53;;;19.95;;
60859;SDS011;46694;54.382;9.708;2022-11-24T09:27:36;59.97;;;23.33;;
60859;SDS011;46694;54.382;9.708;2022-11-24T09:30:16;55.40;;;20.90;;
60859;SDS011;46694;54.382;9.708;2022-11-24T09:32:56;57.25;;;23.17;;
60859;SDS011;46694;54.382;9.708;2022-11-24T09:35:36;50.08;;;22.08;;
60859;SDS011;46694;54.382;9.708;2022-11-24T09:38:16;55.10;;;23.58;;
60859;SDS011;46694;54.382;9.708;2022-11-24T09:40:55;46.03;;;22.92;;
60859;SDS011;46694;54.382;9.708;2022-11-24T09:50:32;61.05;;;22.40;;
60859;SDS011;46694;54.382;9.708;2022-11-24T09:53:17;50.47;;;22.98;;
60859;SDS011;46694;54.382;9.708;2022-11-24T09:59:09;59.22;;;20.45;;
60859;SDS011;46694;54.382;9.708;2022-11-24T10:01:59;45.97;;;21.23;;
60859;SDS011;46694;54.382;9.708;2022-11-24T10:04:42;57.05;;;23.70;;
60859;SDS011;46694;54.382;9.708;2022-11-24T10:07:32;57.00;;;22.58;;
60859;SDS011;46694;54.382;9.708;2022-11-24T10:10:43;55.05;;;22.05;;
60859;SDS011;46694;54.382;9.708;2022-11-24T10:14:20;45.90;;;20.27;;
60859;SDS011;46694;54.382;9.708;2022-11-24T10:26:23;55.63;;;21.13;;
60859;SDS011;46694;54.382;9.708;2022-11-24T10:29:31;44.88;;;18.50;;
60859;SDS011;46694;54.382;9.708;2022-11-24T10:32:30;56.35;;;20.90;;
60859;SDS011;46694;54.382;9.708;2022-11-24T10:35:20;44.15;;;19.60;;
60859;SDS011;46694;54.382;9.708;2022-11-24T10:44:24;58.15;;;18.30;;
60859;SDS011;46694;54.382;9.708;2022-11-24T10:47:09;39.17;;;17.80;;
60859;SDS011;46694;54.382;9.708;2022-11-24T10:49:59;58.72;;;20.05;;
60859;SDS011;46694;54.382;9.708;2022-11-24T10:58:36;42.85;;;17.30;;
60859;SDS011;46694;54.382;9.708;2022-11-24T11:03:59;45.67;;;18.40;;
60859;SDS011;46694;54.382;9.708;2022-11-24T11:06:39;37.42;;;16.25;;
60859;SDS011;46694;54.382;9.708;2022-11-24T11:09:19;30.50;;;16.25;;
60859;SDS011;46694;54.382;9.708;2022-11-24T11:12:20;34.80;;;17.33;;
60859;SDS011;46694;54.382;9.708;2022-11-24T11:15:23;42.30;;;18.02;;
60859;SDS011;46694;54.382;9.708;2022-11-24T11:18:09;41.45;;;17.60;;
60859;SDS011;46694;54.382;9.708;2022-11-24T11:20:55;42.15;;;18.73;;
60859;SDS011;46694;54.382;9.708;2022-11-24T11:23:39;37.00;;;18.23;;
60859;SDS011;46694;54.382;9.708;2022-11-24T11:31:55;47.13;;;19.13;;
60859;SDS011;46694;54.382;9.708;2022-11-24T11:34:36;43.85;;;17.42;;
60859;SDS011;46694;54.382;9.708;2022-11-24T11:37:18;47.08;;;16.15;;
60859;SDS011;46694;54.382;9.708;2022-11-24T11:39:59;31.67;;;15.63;;
60859;SDS011;46694;54.382;9.708;2022-11-24T11:42:43;56.95;;;16.98;;
60859;SDS011;46694;54.382;9.708;2022-11-24T11:45:35;44.40;;;17.27;;
60859;SDS011;46694;54.382;9.708;2022-11-24T11:54:33;39.00;;;15.27;;
60859;SDS011;46694;54.382;9.708;2022-11-24T11:57:45;35.30;;;14.77;;
60859;SDS011;46694;54.382;9.708;2022-11-24T12:00:55;42.53;;;14.77;;
60859;SDS011;46694;54.382;9.708;2022-11-24T12:04:18;50.40;;;15.55;;
60859;SDS011;46694;54.382;9.708;2022-11-24T12:13:25;46.42;;;14.98;;
60859;SDS011;46694;54.382;9.708;2022-11-24T12:52:36;39.70;;;15.47;;
60859;SDS011;46694;54.382;9.708;2022-11-24T12:55:24;34.90;;;16.08;;
60859;SDS011;46694;54.382;9.708;2022-11-24T12:58:10;36.65;;;15.35;;
60859;SDS011;46694;54.382;9.708;2022-11-24T13:10:28;33.27;;;13.77;;
60859;SDS011;46694;54.382;9.708;2022-11-24T13:13:12;43.03;;;13.80;;
60859;SDS011;46694;54.382;9.708;2022-11-24T13:24:26;28.93;;;12.47;;
60859;SDS011;46694;54.382;9.708;2022-11-24T13:29:52;36.73;;;13.30;;
60859;SDS011;46694;54.382;9.708;2022-11-24T13:35:12;43.33;;;14.18;;
60859;SDS011;46694;54.382;9.708;2022-11-24T13:37:53;36.10;;;13.80;;
60859;SDS011;46694;54.382;9.708;2022-11-24T13:40:37;36.60;;;14.67;;
60859;SDS011;46694;54.382;9.708;2022-11-24T13:43:21;42.20;;;14.50;;
60859;SDS011;46694;54.382;9.708;2022-11-24T13:46:01;29.53;;;15.43;;
60859;SDS011;46694;54.382;9.708;2022-11-24T13:51:24;47.17;;;24.27;;
60859;SDS011;46694;54.382;9.708;2022-11-24T13:54:07;69.73;;;27.00;;
60859;SDS011;46694;54.382;9.708;2022-11-24T13:56:48;35.77;;;14.53;;
60859;SDS011;46694;54.382;9.708;2022-11-24T13:59:30;48.67;;;15.27;;
60859;SDS011;46694;54.382;9.708;2022-11-24T14:02:18;48.80;;;15.83;;
60859;SDS011;46694;54.382;9.708;2022-11-24T14:05:01;50.67;;;18.87;;
60859;SDS011;46694;54.382;9.708;2022-11-24T14:07:42;43.50;;;17.03;;
60859;SDS011;46694;54.382;9.708;2022-11-24T14:10:28;61.50;;;26.13;;
60859;SDS011;46694;54.382;9.708;2022-11-24T14:16:02;97.93;;;35.13;;
60859;SDS011;46694;54.382;9.708;2022-11-24T14:18:45;54.97;;;20.40;;
60859;SDS011;46694;54.382;9.708;2022-11-24T14:24:22;29.50;;;13.67;;
60859;SDS011;46694;54.382;9.708;2022-11-24T14:27:03;30.52;;;13.23;;
60859;SDS011;46694;54.382;9.708;2022-11-24T14:29:59;50.95;;;15.40;;
60859;SDS011;46694;54.382;9.708;2022-11-24T14:32:59;42.38;;;14.02;;
60859;SDS011;46694;54.382;9.708;2022-11-24T14:35:42;28.27;;;13.00;;
60859;SDS011;46694;54.382;9.708;2022-11-24T14:38:24;32.27;;;13.07;;
60859;SDS011;46694;54.382;9.708;2022-11-24T14:41:20;35.63;;;13.77;;
60859;SDS011;46694;54.382;9.708;2022-11-24T14:44:04;38.45;;;12.77;;
60859;SDS011;46694;54.382;9.708;2022-11-24T14:46:54;28.27;;;14.80;;
60859;SDS011;46694;54.382;9.708;2022-11-24T14:49:44;37.35;;;14.98;;
60859;SDS011;46694;54.382;9.708;2022-11-24T14:52:23;40.75;;;15.00;;
60859;SDS011;46694;54.382;9.708;2022-11-24T14:55:04;41.10;;;17.97;;
60859;SDS011;46694;54.382;9.708;2022-11-24T14:57:44;36.47;;;15.47;;
60859;SDS011;46694;54.382;9.708;2022-11-24T15:03:14;38.58;;;16.92;;
60859;SDS011;46694;54.382;9.708;2022-11-24T15:05:57;34.88;;;14.77;;
60859;SDS011;46694;54.382;9.708;2022-11-24T15:08:41;39.25;;;16.75;;
60859;SDS011;46694;54.382;9.708;2022-11-24T15:11:27;37.67;;;17.67;;
60859;SDS011;46694;54.382;9.708;2022-11-24T15:14:17;40.67;;;17.67;;
60859;SDS011;46694;54.382;9.708;2022-11-24T15:17:14;37.58;;;16.73;;
60859;SDS011;46694;54.382;9.708;2022-11-24T15:20:00;34.05;;;16.00;;
60859;SDS011;46694;54.382;9.708;2022-11-24T15:23:17;39.33;;;16.88;;
60859;SDS011;46694;54.382;9.708;2022-11-24T15:28:51;43.92;;;15.45;;
60859;SDS011;46694;54.382;9.708;2022-11-24T15:31:31;33.13;;;15.13;;
60859;SDS011;46694;54.382;9.708;2022-11-24T15:34:11;51.33;;;15.63;;
60859;SDS011;46694;54.382;9.708;2022-11-24T15:36:52;44.53;;;15.63;;
60859;SDS011;46694;54.382;9.708;2022-11-24T15:39:31;44.50;;;15.93;;
60859;SDS011;46694;54.382;9.708;2022-11-24T15:42:11;43.42;;;15.27;;
60859;SDS011;46694;54.382;9.708;2022-11-24T15:44:50;34.33;;;15.57;;
60859;SDS011;46694;54.382;9.708;2022-11-24T15:47:30;35.30;;;15.35;;
60859;SDS011;46694;54.382;9.708;2022-11-24T15:50:10;42.47;;;16.38;;
60859;SDS011;46694;54.382;9.708;2022-11-24T15:52:50;47.17;;;16.23;;
60859;SDS011;46694;54.382;9.708;2022-11-24T15:55:30;37.75;;;15.88;;
60859;SDS011;46694;54.382;9.708;2022-11-24T15:58:11;39.60;;;15.25;;
60859;SDS011;46694;54.382;9.708;2022-11-24T16:00:51;44.13;;;16.02;;
60859;SDS011;46694;54.382;9.708;2022-11-24T16:03:31;43.58;;;16.20;;
60859;SDS011;46694;54.382;9.708;2022-11-24T16:06:16;51.33;;;16.52;;
60859;SDS011;46694;54.382;9.708;2022-11-24T16:08:57;40.70;;;15.82;;
60859;SDS011;46694;54.382;9.708;2022-11-24T16:11:37;41.22;;;16.77;;
60859;SDS011;46694;54.382;9.708;2022-11-24T16:14:16;45.67;;;15.50;;
60859;SDS011;46694;54.382;9.708;2022-11-24T16:16:56;48.13;;;14.85;;
60859;SDS011;46694;54.382;9.708;2022-11-24T16:19:35;36.05;;;15.73;;
60859;SDS011;46694;54.382;9.708;2022-11-24T16:22:15;38.60;;;17.97;;
60859;SDS011;46694;54.382;9.708;2022-11-24T16:24:54;41.30;;;17.60;;
60859;SDS011;46694;54.382;9.708;2022-11-24T16:27:34;43.67;;;17.15;;
60859;SDS011;46694;54.382;9.708;2022-11-24T16:30:14;45.67;;;18.05;;
60859;SDS011;46694;54.382;9.708;2022-11-24T16:32:53;51.33;;;19.35;;
60859;SDS011;46694;54.382;9.708;2022-11-24T16:35:33;33.55;;;15.48;;
60859;SDS011;46694;54.382;9.708;2022-11-24T16:38:16;36.30;;;16.13;;
60859;SDS011;46694;54.382;9.708;2022-11-24T16:40:57;34.95;;;14.88;;
60859;SDS011;46694;54.382;9.708;2022-11-24T16:43:36;37.95;;;15.82;;
60859;SDS011;46694;54.382;9.708;2022-11-24T16:46:17;53.50;;;16.23;;
60859;SDS011;46694;54.382;9.708;2022-11-24T16:49:02;43.58;;;16.35;;
60859;SDS011;46694;54.382;9.708;2022-11-24T16:51:42;49.92;;;15.98;;
60859;SDS011;46694;54.382;9.708;2022-11-24T16:54:21;42.00;;;15.95;;
60859;SDS011;46694;54.382;9.708;2022-11-24T16:57:01;46.65;;;17.25;;
60859;SDS011;46694;54.382;9.708;2022-11-24T16:59:41;38.90;;;16.20;;
60859;SDS011;46694;54.382;9.708;2022-11-24T17:02:21;43.47;;;16.85;;
60859;SDS011;46694;54.382;9.708;2022-11-24T17:05:01;48.33;;;16.50;;
60859;SDS011;46694;54.382;9.708;2022-11-24T17:07:41;40.55;;;14.45;;
60859;SDS011;46694;54.382;9.708;2022-11-24T17:10:20;34.22;;;14.82;;
60859;SDS011;46694;54.382;9.708;2022-11-24T17:13:00;43.60;;;15.50;;
60859;SDS011;46694;54.382;9.708;2022-11-24T17:15:40;38.72;;;15.60;;
60859;SDS011;46694;54.382;9.708;2022-11-24T17:18:19;47.42;;;15.77;;
60859;SDS011;46694;54.382;9.708;2022-11-24T17:21:00;45.53;;;15.48;;
60859;SDS011;46694;54.382;9.708;2022-11-24T17:23:40;40.25;;;16.00;;
60859;SDS011;46694;54.382;9.708;2022-11-24T17:26:20;35.13;;;15.27;;
60859;SDS011;46694;54.382;9.708;2022-11-24T17:29:00;37.33;;;14.65;;
60859;SDS011;46694;54.382;9.708;2022-11-24T17:31:40;44.22;;;16.02;;
60859;SDS011;46694;54.382;9.708;2022-11-24T17:34:19;46.33;;;14.55;;
60859;SDS011;46694;54.382;9.708;2022-11-24T17:36:59;34.85;;;15.82;;
60859;SDS011;46694;54.382;9.708;2022-11-24T17:39:38;43.10;;;16.25;;
60859;SDS011;46694;54.382;9.708;2022-11-24T17:42:18;47.03;;;14.23;;
60859;SDS011;46694;54.382;9.708;2022-11-24T17:44:58;42.95;;;13.05;;
60859;SDS011;46694;54.382;9.708;2022-11-24T17:47:37;31.15;;;12.55;;
60859;SDS011;46694;54.382;9.708;2022-11-24T17:50:17;27.10;;;12.33;;
60859;SDS011;46694;54.382;9.708;2022-11-24T17:52:56;29.55;;;12.93;;
60859;SDS011;46694;54.382;9.708;2022-11-24T17:55:36;40.03;;;13.10;;
60859;SDS011;46694;54.382;9.708;2022-11-24T17:58:16;29.70;;;13.77;;
60859;SDS011;46694;54.382;9.708;2022-11-24T18:00:55;41.07;;;14.70;;
60859;SDS011;46694;54.382;9.708;2022-11-24T18:03:37;33.90;;;13.40;;